Time;durP1;ratioP1;P1;durP2;ratioP2;P2;SDS_P1;SDS_P2;PMS_P1;PMS_P2;Temp;Humidity;BMP_temperature;BMP_pressure;BME280_temperature;BME280_humidity;BME280_pressure;Samples;Min_cycle;Max_cycle;Signal;HPM_P1;HPM_P2
2023/12/28 00:01:41;;;;;;;1.57;0.70;;;;;;;;;;5012980;28;20463;-79
2023/12/28 00:04:07;;;;;;;1.63;0.53;;;;;;;;;;5011838;28;20522;-79
2023/12/28 00:06:33;;;;;;;3.73;0.80;;;;;;;;;;5013120;28;20411;-78
2023/12/28 00:09:00;;;;;;;2.20;1.10;;;;;;;;;;4972802;28;21328;-79
2023/12/28 00:11:26;;;;;;;2.70;0.40;;;;;;;;;;5012863;28;20574;-79
2023/12/28 00:13:52;;;;;;;3.67;0.93;;;;;;;;;;5011513;28;20485;-78
2023/12/28 00:16:18;;;;;;;1.83;0.80;;;;;;;;;;5012976;28;20500;-79
2023/12/28 00:18:44;;;;;;;3.13;1.10;;;;;;;;;;5012876;28;20416;-78
2023/12/28 00:21:09;;;;;;;4.03;0.87;;;;;;;;;;5012911;28;20178;-77
2023/12/28 00:23:35;;;;;;;3.63;0.50;;;;;;;;;;5012637;28;20249;-76
2023/12/28 00:26:01;;;;;;;5.13;1.57;;;;;;;;;;5012794;28;20265;-79
2023/12/28 00:28:39;;;;;;;2.53;0.77;;;;;;;;;;5012777;28;20176;-80
2023/12/28 00:31:05;;;;;;;2.60;0.87;;;;;;;;;;5011602;28;20656;-77
2023/12/28 00:33:31;;;;;;;1.90;0.57;;;;;;;;;;5011530;28;20480;-80
2023/12/28 00:35:57;;;;;;;1.93;0.30;;;;;;;;;;5012777;28;20407;-79
2023/12/28 00:38:23;;;;;;;3.00;0.77;;;;;;;;;;5012570;28;20171;-79
2023/12/28 00:40:48;;;;;;;1.83;0.43;;;;;;;;;;5011544;28;20236;-78
2023/12/28 00:43:14;;;;;;;1.53;0.60;;;;;;;;;;5012729;28;20188;-79
2023/12/28 00:45:41;;;;;;;2.70;0.63;;;;;;;;;;5012678;28;20204;-80
2023/12/28 00:48:07;;;;;;;2.23;0.60;;;;;;;;;;5012708;28;20413;-78
2023/12/28 00:50:33;;;;;;;2.30;0.87;;;;;;;;;;5011414;28;20906;-78
2023/12/28 00:52:59;;;;;;;2.67;0.70;;;;;;;;;;5012238;28;20208;-79
2023/12/28 00:55:25;;;;;;;1.80;0.63;;;;;;;;;;5014933;28;20653;-79
2023/12/28 00:57:51;;;;;;;1.33;0.40;;;;;;;;;;5016183;28;20412;-78
2023/12/28 01:00:17;;;;;;;3.80;1.33;;;;;;;;;;5015849;28;20444;-79
2023/12/28 01:02:46;;;;;;;2.00;0.87;;;;;;;;;;5016083;28;20256;-80
2023/12/28 01:05:12;;;;;;;1.83;0.83;;;;;;;;;;5015678;28;20417;-80
2023/12/28 01:07:38;;;;;;;2.13;0.97;;;;;;;;;;5014332;28;20508;-77
2023/12/28 01:10:04;;;;;;;3.73;0.90;;;;;;;;;;5014083;28;20432;-77
2023/12/28 01:12:30;;;;;;;3.70;0.70;;;;;;;;;;5014395;28;20208;-78
2023/12/28 01:14:56;;;;;;;4.87;0.50;;;;;;;;;;4986047;28;20522;-77
2023/12/28 01:17:22;;;;;;;1.87;0.70;;;;;;;;;;5005314;28;20437;-78
2023/12/28 01:19:48;;;;;;;1.70;0.87;;;;;;;;;;5015621;28;20260;-78
2023/12/28 01:22:14;;;;;;;3.53;0.93;;;;;;;;;;5015469;28;20177;-80
2023/12/28 01:24:39;;;;;;;2.47;0.90;;;;;;;;;;5015328;28;20925;-77
2023/12/28 01:27:05;;;;;;;1.03;0.40;;;;;;;;;;5015603;28;20175;-79
2023/12/28 01:29:32;;;;;;;3.03;1.30;;;;;;;;;;5015564;28;20846;-78
2023/12/28 01:32:04;;;;;;;2.50;0.60;;;;;;;;;;5015498;28;21039;-79
2023/12/28 01:34:30;;;;;;;3.10;0.80;;;;;;;;;;5015296;28;20520;-79
2023/12/28 01:36:56;;;;;;;4.87;0.50;;;;;;;;;;5014220;28;20414;-79
2023/12/28 01:39:22;;;;;;;3.23;0.93;;;;;;;;;;5013781;28;20424;-78
2023/12/28 01:41:48;;;;;;;2.00;0.67;;;;;;;;;;5015348;28;20415;-78
2023/12/28 01:44:14;;;;;;;2.93;0.50;;;;;;;;;;5015291;28;20953;-79
2023/12/28 01:46:41;;;;;;;2.90;0.40;;;;;;;;;;5015235;28;20408;-79
2023/12/28 01:49:07;;;;;;;1.20;0.50;;;;;;;;;;5015172;28;20284;-80
2023/12/28 01:51:34;;;;;;;1.30;0.40;;;;;;;;;;5013494;28;20418;-80
2023/12/28 01:54:00;;;;;;;2.70;0.50;;;;;;;;;;5014427;28;20487;-79
2023/12/28 01:56:26;;;;;;;4.73;0.60;;;;;;;;;;5012135;28;20432;-79
2023/12/28 01:58:53;;;;;;;4.17;0.87;;;;;;;;;;5010017;28;20414;-78
2023/12/28 02:01:22;;;;;;;2.23;0.90;;;;;;;;;;5014287;28;20457;-80
2023/12/28 02:03:48;;;;;;;2.50;1.40;;;;;;;;;;5014137;28;20414;-80
2023/12/28 02:06:16;;;;;;;2.47;0.60;;;;;;;;;;5013364;28;20407;-79
2023/12/28 02:08:42;;;;;;;4.03;1.30;;;;;;;;;;5013975;28;20487;-79
2023/12/28 02:11:08;;;;;;;2.77;1.27;;;;;;;;;;5014301;28;20412;-81
2023/12/28 02:13:34;;;;;;;2.47;1.13;;;;;;;;;;5014109;28;20477;-81
2023/12/28 02:16:07;;;;;;;3.67;1.30;;;;;;;;;;5014431;28;20938;-79
2023/12/28 02:18:43;;;;;;;3.83;0.93;;;;;;;;;;5014244;28;20786;-79
2023/12/28 02:21:09;;;;;;;1.50;0.70;;;;;;;;;;5012577;28;20432;-78
2023/12/28 02:23:38;;;;;;;6.27;1.13;;;;;;;;;;5013701;28;20429;-78
2023/12/28 02:26:04;;;;;;;4.63;1.37;;;;;;;;;;5012341;28;20442;-80
2023/12/28 02:28:30;;;;;;;4.17;1.40;;;;;;;;;;5014028;28;20417;-78
2023/12/28 02:30:56;;;;;;;4.00;1.03;;;;;;;;;;5014023;28;20548;-78
2023/12/28 02:33:44;;;;;;;2.00;1.03;;;;;;;;;;5013921;28;20956;-79
2023/12/28 02:36:11;;;;;;;1.63;0.77;;;;;;;;;;5013803;28;20508;-79
2023/12/28 02:38:39;;;;;;;3.13;1.17;;;;;;;;;;5013498;28;20402;-79
2023/12/28 02:41:05;;;;;;;1.73;0.60;;;;;;;;;;5012427;28;20983;-79
2023/12/28 02:43:33;;;;;;;4.37;0.90;;;;;;;;;;5013782;28;20419;-78
2023/12/28 02:45:58;;;;;;;3.00;0.90;;;;;;;;;;5013558;28;20786;-78
2023/12/28 02:48:25;;;;;;;6.93;1.73;;;;;;;;;;4997405;28;20421;-78
2023/12/28 02:50:51;;;;;;;2.40;0.50;;;;;;;;;;4990237;28;20417;-78
2023/12/28 02:53:17;;;;;;;2.90;0.80;;;;;;;;;;5013254;28;20819;-79
2023/12/28 02:55:43;;;;;;;3.83;1.53;;;;;;;;;;5013451;28;20177;-79
2023/12/28 02:58:09;;;;;;;2.60;0.90;;;;;;;;;;5013422;28;20563;-78
2023/12/28 03:00:35;;;;;;;2.37;1.20;;;;;;;;;;5012025;28;20470;-79
2023/12/28 03:03:01;;;;;;;3.20;2.13;;;;;;;;;;5013462;28;20849;-79
2023/12/28 03:05:27;;;;;;;3.43;1.33;;;;;;;;;;5013438;28;20781;-79
2023/12/28 03:07:55;;;;;;;2.83;2.10;;;;;;;;;;5013059;28;20175;-79
2023/12/28 03:10:21;;;;;;;3.43;1.67;;;;;;;;;;5013369;28;20174;-78
2023/12/28 03:12:47;;;;;;;3.10;1.70;;;;;;;;;;5013200;28;20959;-77
2023/12/28 03:15:16;;;;;;;4.30;1.40;;;;;;;;;;5013236;28;20572;-78
2023/12/28 03:17:42;;;;;;;4.70;1.37;;;;;;;;;;5013188;28;20758;-78
2023/12/28 03:20:09;;;;;;;5.20;2.37;;;;;;;;;;5013181;28;20432;-79
2023/12/28 03:22:35;;;;;;;7.97;1.57;;;;;;;;;;5012506;28;20184;-79
2023/12/28 03:25:00;;;;;;;3.27;1.60;;;;;;;;;;5013216;28;20415;-79
2023/12/28 03:27:26;;;;;;;3.17;1.73;;;;;;;;;;5028338;28;20783;-78
2023/12/28 03:29:52;;;;;;;4.37;2.37;;;;;;;;;;5013144;28;20425;-78
2023/12/28 03:32:18;;;;;;;6.50;1.60;;;;;;;;;;5013104;28;21102;-78
2023/12/28 03:34:44;;;;;;;3.13;1.60;;;;;;;;;;5028178;28;20479;-78
2023/12/28 03:37:11;;;;;;;2.93;2.10;;;;;;;;;;5013030;28;20228;-78
2023/12/28 03:39:37;;;;;;;3.87;1.37;;;;;;;;;;5012544;28;20172;-78
2023/12/28 03:42:03;;;;;;;4.67;2.13;;;;;;;;;;5012722;28;20951;-79
2023/12/28 03:44:29;;;;;;;3.47;1.60;;;;;;;;;;5012999;28;20465;-79
2023/12/28 03:46:55;;;;;;;2.73;1.67;;;;;;;;;;5013002;28;20400;-78
2023/12/28 03:49:22;;;;;;;4.23;1.50;;;;;;;;;;5012979;28;20407;-78
2023/12/28 03:51:49;;;;;;;4.00;1.40;;;;;;;;;;5028043;28;20418;-78
2023/12/28 03:54:18;;;;;;;5.63;1.63;;;;;;;;;;5012196;28;20523;-80
2023/12/28 03:56:44;;;;;;;4.03;1.70;;;;;;;;;;5028078;28;20430;-78
2023/12/28 03:59:10;;;;;;;3.90;2.13;;;;;;;;;;5027908;28;20483;-80
2023/12/28 04:01:36;;;;;;;3.13;1.40;;;;;;;;;;5012554;28;20472;-80
2023/12/28 04:04:03;;;;;;;4.37;1.67;;;;;;;;;;5012466;28;20549;-80
2023/12/28 04:06:29;;;;;;;3.77;1.10;;;;;;;;;;5012661;28;20415;-80
2023/12/28 04:08:55;;;;;;;5.87;1.27;;;;;;;;;;5007921;28;21001;-79
2023/12/28 04:11:21;;;;;;;3.27;1.23;;;;;;;;;;4974973;28;20422;-79
2023/12/28 04:13:47;;;;;;;3.67;0.83;;;;;;;;;;5012680;28;20476;-79
2023/12/28 04:16:13;;;;;;;3.10;1.60;;;;;;;;;;5012663;28;20463;-78
2023/12/28 04:18:43;;;;;;;5.80;1.43;;;;;;;;;;5012531;28;20171;-78
2023/12/28 04:21:12;;;;;;;4.27;1.23;;;;;;;;;;5012736;28;20524;-79
2023/12/28 04:23:39;;;;;;;2.43;1.20;;;;;;;;;;5012361;28;20425;-79
2023/12/28 04:26:05;;;;;;;3.73;1.30;;;;;;;;;;5012471;28;20413;-80
2023/12/28 04:28:31;;;;;;;2.40;1.37;;;;;;;;;;5012349;28;20430;-79
2023/12/28 04:30:57;;;;;;;4.07;2.17;;;;;;;;;;5015267;28;20758;-78
2023/12/28 04:33:22;;;;;;;3.27;1.00;;;;;;;;;;5015002;28;20476;-78
2023/12/28 04:35:48;;;;;;;1.97;1.10;;;;;;;;;;5016030;28;20413;-78
2023/12/28 04:38:14;;;;;;;5.93;1.90;;;;;;;;;;5015730;28;20451;-78
2023/12/28 04:40:41;;;;;;;3.83;1.60;;;;;;;;;;5015988;28;20405;-78
2023/12/28 04:43:07;;;;;;;2.17;1.10;;;;;;;;;;5014086;28;20776;-78
2023/12/28 04:45:33;;;;;;;4.97;1.97;;;;;;;;;;5015939;28;20422;-78
2023/12/28 04:47:59;;;;;;;5.20;1.40;;;;;;;;;;5014541;28;20422;-78
2023/12/28 04:50:25;;;;;;;3.33;0.90;;;;;;;;;;5015469;28;20429;-77
2023/12/28 04:52:51;;;;;;;3.23;1.40;;;;;;;;;;5015394;28;20492;-77
2023/12/28 04:55:17;;;;;;;3.87;1.93;;;;;;;;;;5030887;28;20499;-78
2023/12/28 04:57:43;;;;;;;2.70;1.00;;;;;;;;;;5015545;28;20460;-78
2023/12/28 05:00:09;;;;;;;3.20;1.90;;;;;;;;;;5015406;28;20695;-77
2023/12/28 05:02:35;;;;;;;4.57;1.30;;;;;;;;;;5015432;28;20427;-78
2023/12/28 05:05:01;;;;;;;3.60;1.80;;;;;;;;;;5015508;28;20402;-78
2023/12/28 05:07:30;;;;;;;3.43;1.63;;;;;;;;;;5015047;28;20989;-80
2023/12/28 05:09:58;;;;;;;2.50;1.70;;;;;;;;;;5030513;28;20996;-81
2023/12/28 05:12:24;;;;;;;5.50;1.20;;;;;;;;;;5015454;28;20917;-80
2023/12/28 05:14:53;;;;;;;3.30;2.20;;;;;;;;;;5015275;28;20472;-81
2023/12/28 05:17:19;;;;;;;2.90;1.47;;;;;;;;;;5015389;28;20469;-80
2023/12/28 05:19:45;;;;;;;4.10;1.47;;;;;;;;;;5015161;28;20411;-79
2023/12/28 05:22:12;;;;;;;4.10;1.80;;;;;;;;;;5014914;28;20486;-82
2023/12/28 05:24:38;;;;;;;5.60;2.67;;;;;;;;;;5015121;28;20926;-80
2023/12/28 05:27:04;;;;;;;4.27;1.93;;;;;;;;;;5015155;28;20959;-80
2023/12/28 05:29:36;;;;;;;4.07;2.10;;;;;;;;;;5012432;28;20924;-80
2023/12/28 05:32:08;;;;;;;10.03;1.70;;;;;;;;;;5015166;28;20417;-82
2023/12/28 05:34:34;;;;;;;4.40;1.10;;;;;;;;;;5013231;28;20514;-81
2023/12/28 05:37:02;;;;;;;6.80;2.00;;;;;;;;;;5015268;28;20973;-83
2023/12/28 05:39:28;;;;;;;4.17;1.90;;;;;;;;;;5014306;28;20793;-80
2023/12/28 05:41:54;;;;;;;6.53;1.90;;;;;;;;;;5014153;28;20555;-81
2023/12/28 05:44:20;;;;;;;3.10;1.10;;;;;;;;;;5015334;28;20903;-80
2023/12/28 05:46:47;;;;;;;4.50;1.47;;;;;;;;;;5015231;28;20469;-82
2023/12/28 05:49:13;;;;;;;7.80;0.87;;;;;;;;;;5015256;28;20417;-81
2023/12/28 05:51:41;;;;;;;2.80;1.60;;;;;;;;;;5015346;28;20786;-81
2023/12/28 05:54:08;;;;;;;2.67;1.60;;;;;;;;;;5014738;28;20590;-80
2023/12/28 05:56:34;;;;;;;4.77;1.87;;;;;;;;;;5030474;28;20434;-80
2023/12/28 05:59:00;;;;;;;6.70;2.00;;;;;;;;;;5015275;28;20418;-79
2023/12/28 06:01:27;;;;;;;2.60;1.40;;;;;;;;;;5014964;28;20509;-81
2023/12/28 06:03:53;;;;;;;4.80;1.90;;;;;;;;;;5015059;28;20418;-79
2023/12/28 06:06:20;;;;;;;5.20;2.10;;;;;;;;;;5015243;28;20424;-82
2023/12/28 06:08:46;;;;;;;3.20;1.33;;;;;;;;;;5014613;28;20445;-79
2023/12/28 06:11:12;;;;;;;5.53;2.67;;;;;;;;;;5015007;28;20403;-80
2023/12/28 06:13:38;;;;;;;3.47;1.13;;;;;;;;;;5014989;28;20496;-80
2023/12/28 06:16:04;;;;;;;3.37;1.50;;;;;;;;;;5014891;28;20407;-80
2023/12/28 06:18:31;;;;;;;2.97;1.13;;;;;;;;;;5014945;28;20418;-81
2023/12/28 06:20:57;;;;;;;5.33;1.33;;;;;;;;;;5014887;28;20410;-79
2023/12/28 06:23:23;;;;;;;6.60;2.10;;;;;;;;;;5014394;28;20405;-81
2023/12/28 06:25:48;;;;;;;5.90;1.40;;;;;;;;;;5014844;28;20913;-80
2023/12/28 06:28:17;;;;;;;6.80;2.03;;;;;;;;;;5014654;28;20421;-80
2023/12/28 06:30:43;;;;;;;5.43;1.67;;;;;;;;;;5014721;28;20423;-79
2023/12/28 06:33:09;;;;;;;6.87;2.30;;;;;;;;;;5014603;28;20977;-82
2023/12/28 06:35:35;;;;;;;2.67;1.17;;;;;;;;;;5014663;28;20827;-80
2023/12/28 06:38:02;;;;;;;3.83;1.80;;;;;;;;;;5014248;28;20925;-78
2023/12/28 06:40:28;;;;;;;6.50;1.50;;;;;;;;;;5014499;28;20411;-81
2023/12/28 06:42:54;;;;;;;3.97;1.90;;;;;;;;;;5014378;28;20417;-79
2023/12/28 06:45:27;;;;;;;3.90;1.00;;;;;;;;;;5014355;28;20410;-81
2023/12/28 06:47:53;;;;;;;4.20;1.00;;;;;;;;;;5013049;28;20422;-80
2023/12/28 06:50:19;;;;;;;3.37;1.50;;;;;;;;;;5014258;28;20440;-80
2023/12/28 06:52:45;;;;;;;7.10;1.50;;;;;;;;;;5013234;28;20780;-78
2023/12/28 06:55:11;;;;;;;4.33;1.17;;;;;;;;;;5012970;28;20426;-79
2023/12/28 06:57:37;;;;;;;4.63;2.00;;;;;;;;;;5014133;28;20412;-80
2023/12/28 07:00:04;;;;;;;5.50;1.53;;;;;;;;;;5013920;28;20416;-80
2023/12/28 07:02:31;;;;;;;9.40;2.33;;;;;;;;;;5013338;28;20945;-80
2023/12/28 07:05:03;;;;;;;4.33;1.40;;;;;;;;;;5012511;28;20434;-81
2023/12/28 07:07:29;;;;;;;3.33;1.27;;;;;;;;;;5013295;28;20417;-81
2023/12/28 07:09:58;;;;;;;3.80;0.87;;;;;;;;;;5013602;28;20410;-79
2023/12/28 07:12:24;;;;;;;4.47;1.07;;;;;;;;;;5013735;28;20435;-81
2023/12/28 07:14:53;;;;;;;7.20;1.07;;;;;;;;;;5013544;28;20470;-80
2023/12/28 07:17:19;;;;;;;2.20;1.60;;;;;;;;;;5013528;28;20465;-78
2023/12/28 07:19:45;;;;;;;5.00;1.73;;;;;;;;;;5013491;28;20504;-81
2023/12/28 07:22:11;;;;;;;3.33;0.70;;;;;;;;;;5011855;28;20508;-80
2023/12/28 07:24:37;;;;;;;4.97;1.40;;;;;;;;;;5013329;28;20446;-80
2023/12/28 07:27:03;;;;;;;7.20;1.50;;;;;;;;;;5013316;28;20267;-79
2023/12/28 07:29:29;;;;;;;1.90;0.63;;;;;;;;;;5012158;28;20786;-79
2023/12/28 07:31:55;;;;;;;2.43;1.30;;;;;;;;;;5013245;28;20423;-80
2023/12/28 07:34:21;;;;;;;6.60;1.03;;;;;;;;;;5013159;28;20569;-80
2023/12/28 07:36:47;;;;;;;2.27;1.13;;;;;;;;;;5012938;28;20913;-80
2023/12/28 07:39:14;;;;;;;2.70;0.77;;;;;;;;;;5013298;28;20420;-79
2023/12/28 07:41:40;;;;;;;4.73;1.20;;;;;;;;;;5013252;28;20414;-79
2023/12/28 07:44:06;;;;;;;2.87;1.00;;;;;;;;;;5013190;28;20428;-80
2023/12/28 07:46:33;;;;;;;5.03;0.83;;;;;;;;;;5013040;28;20410;-81
2023/12/28 07:48:59;;;;;;;3.30;0.90;;;;;;;;;;5013168;28;20421;-79
2023/12/28 07:51:25;;;;;;;4.63;1.40;;;;;;;;;;5013189;28;20417;-80
2023/12/28 07:53:51;;;;;;;3.67;1.00;;;;;;;;;;5012724;28;20472;-80
2023/12/28 07:56:17;;;;;;;5.53;1.13;;;;;;;;;;5013137;28;20840;-78
2023/12/28 07:58:43;;;;;;;3.50;0.70;;;;;;;;;;5013025;28;20446;-80
2023/12/28 08:01:12;;;;;;;12.70;2.37;;;;;;;;;;5012937;28;20538;-79
2023/12/28 08:03:44;;;;;;;5.00;1.60;;;;;;;;;;5013059;28;20425;-77
2023/12/28 08:06:12;;;;;;;4.23;1.20;;;;;;;;;;5016798;28;20762;-82
2023/12/28 08:08:41;;;;;;;2.20;0.93;;;;;;;;;;5015312;28;20417;-79
2023/12/28 08:11:07;;;;;;;4.33;1.50;;;;;;;;;;5016895;28;20441;-82
2023/12/28 08:13:36;;;;;;;2.17;0.40;;;;;;;;;;5016997;28;20571;-81
2023/12/28 08:16:02;;;;;;;6.07;1.30;;;;;;;;;;5016946;28;20772;-81
2023/12/28 08:18:28;;;;;;;4.73;1.40;;;;;;;;;;5016866;28;20493;-80
2023/12/28 08:20:54;;;;;;;3.27;0.63;;;;;;;;;;5016870;28;20414;-80
2023/12/28 08:23:20;;;;;;;4.33;0.73;;;;;;;;;;5016479;28;20895;-80
2023/12/28 08:25:46;;;;;;;5.10;1.30;;;;;;;;;;5016596;28;20449;-77
2023/12/28 08:28:12;;;;;;;4.53;1.43;;;;;;;;;;5016602;28;20415;-80
2023/12/28 08:30:39;;;;;;;3.37;0.90;;;;;;;;;;5016534;28;20503;-78
2023/12/28 08:33:05;;;;;;;3.17;1.07;;;;;;;;;;5016551;28;20413;-78
2023/12/28 08:35:31;;;;;;;3.83;0.90;;;;;;;;;;5015196;28;20493;-78
2023/12/28 08:37:57;;;;;;;6.53;0.90;;;;;;;;;;5016221;28;20418;-78
2023/12/28 08:40:22;;;;;;;8.47;0.97;;;;;;;;;;5016254;28;20712;-76
2023/12/28 08:42:48;;;;;;;9.73;1.20;;;;;;;;;;5016413;28;20187;-77
2023/12/28 08:45:14;;;;;;;3.67;1.27;;;;;;;;;;5016334;28;20173;-78
2023/12/28 08:47:40;;;;;;;4.47;1.27;;;;;;;;;;5016259;28;20425;-76
2023/12/28 08:50:06;;;;;;;4.77;0.77;;;;;;;;;;4975008;28;20508;-77
2023/12/28 08:52:32;;;;;;;11.70;2.00;;;;;;;;;;5015801;28;20203;-77
2023/12/28 08:54:59;;;;;;;6.10;1.07;;;;;;;;;;5016100;28;20483;-77
2023/12/28 08:57:25;;;;;;;5.20;0.90;;;;;;;;;;5016196;28;20411;-78
2023/12/28 08:59:51;;;;;;;3.93;0.83;;;;;;;;;;5014832;28;20449;-76
2023/12/28 09:02:16;;;;;;;5.80;0.90;;;;;;;;;;5015761;28;20216;-79
2023/12/28 09:04:42;;;;;;;6.00;0.67;;;;;;;;;;5015916;28;20180;-79
2023/12/28 09:07:09;;;;;;;5.10;0.70;;;;;;;;;;5015542;28;20430;-78
2023/12/28 09:09:38;;;;;;;7.80;1.23;;;;;;;;;;5015888;28;20473;-78
2023/12/28 09:12:04;;;;;;;5.53;0.80;;;;;;;;;;5015918;28;20414;-78
2023/12/28 09:14:30;;;;;;;7.60;1.87;;;;;;;;;;5015535;28;20479;-80
2023/12/28 09:16:59;;;;;;;6.40;1.70;;;;;;;;;;5014977;28;20969;-79
2023/12/28 09:19:25;;;;;;;5.03;0.60;;;;;;;;;;5015111;28;20659;-79
2023/12/28 09:21:51;;;;;;;8.67;1.03;;;;;;;;;;5015012;28;20492;-78
2023/12/28 09:24:18;;;;;;;8.53;1.67;;;;;;;;;;5030854;28;20546;-79
2023/12/28 09:26:44;;;;;;;8.77;1.47;;;;;;;;;;5015521;28;20633;-77
2023/12/28 09:29:10;;;;;;;4.23;0.77;;;;;;;;;;5015613;28;20431;-78
2023/12/28 09:31:36;;;;;;;5.60;0.40;;;;;;;;;;5030621;28;20420;-79
2023/12/28 09:34:02;;;;;;;3.87;1.10;;;;;;;;;;5014552;28;20471;-78
2023/12/28 09:36:28;;;;;;;5.73;1.17;;;;;;;;;;5014633;28;20412;-77
2023/12/28 09:38:53;;;;;;;5.13;1.10;;;;;;;;;;5015026;28;20835;-77
2023/12/28 09:41:22;;;;;;;3.70;0.50;;;;;;;;;;5030521;28;20922;-78
2023/12/28 09:43:55;;;;;;;6.60;1.13;;;;;;;;;;5017345;28;20447;-78
2023/12/28 09:46:21;;;;;;;2.30;0.63;;;;;;;;;;5027675;28;20438;-78
2023/12/28 09:48:47;;;;;;;3.07;0.60;;;;;;;;;;5014872;28;20815;-79
2023/12/28 09:51:13;;;;;;;4.50;1.30;;;;;;;;;;5014604;28;20433;-78
2023/12/28 09:53:39;;;;;;;8.07;0.77;;;;;;;;;;5014424;28;20500;-78
2023/12/28 09:56:06;;;;;;;7.70;0.53;;;;;;;;;;5014883;28;20183;-77
2023/12/28 09:58:33;;;;;;;8.10;0.60;;;;;;;;;;5014540;28;20434;-77
2023/12/28 10:01:01;;;;;;;4.77;1.00;;;;;;;;;;5014569;28;20448;-77
2023/12/28 10:03:27;;;;;;;7.70;1.10;;;;;;;;;;5030022;28;20516;-78
2023/12/28 10:05:53;;;;;;;6.20;0.83;;;;;;;;;;5014782;28;20473;-79
2023/12/28 10:08:19;;;;;;;3.50;1.07;;;;;;;;;;5014467;28;20184;-78
2023/12/28 10:10:50;;;;;;;3.63;1.10;;;;;;;;;;5014638;28;20773;-79
2023/12/28 10:13:17;;;;;;;4.33;0.60;;;;;;;;;;5014667;28;20247;-77
2023/12/28 10:15:43;;;;;;;5.03;0.70;;;;;;;;;;5014622;28;20537;-79
2023/12/28 10:18:09;;;;;;;7.83;1.17;;;;;;;;;;5014423;28;20402;-79
2023/12/28 10:20:35;;;;;;;2.07;0.47;;;;;;;;;;5014609;28;20462;-77
2023/12/28 10:23:01;;;;;;;4.23;0.93;;;;;;;;;;5014137;28;20409;-79
2023/12/28 10:25:32;;;;;;;8.80;1.37;;;;;;;;;;5014133;28;20437;-78
2023/12/28 10:27:59;;;;;;;5.83;1.20;;;;;;;;;;5013685;28;20510;-79
2023/12/28 10:30:24;;;;;;;5.43;0.80;;;;;;;;;;5014471;28;20410;-78
2023/12/28 10:32:50;;;;;;;7.40;0.87;;;;;;;;;;5029326;28;20413;-78
2023/12/28 10:35:16;;;;;;;8.93;1.03;;;;;;;;;;5014243;28;20789;-78
2023/12/28 10:37:43;;;;;;;4.50;1.10;;;;;;;;;;5014007;28;20422;-78
2023/12/28 10:40:12;;;;;;;3.40;0.77;;;;;;;;;;5014223;28;20443;-78
2023/12/28 10:42:46;;;;;;;4.70;0.83;;;;;;;;;;5014104;28;20916;-78
2023/12/28 10:45:13;;;;;;;14.13;3.40;;;;;;;;;;5014177;28;20407;-78
2023/12/28 10:47:43;;;;;;;7.43;1.00;;;;;;;;;;5013954;28;20401;-78
2023/12/28 10:50:11;;;;;;;6.73;1.23;;;;;;;;;;5014013;28;20485;-77
2023/12/28 10:52:37;;;;;;;4.77;0.70;;;;;;;;;;5013670;28;20777;-79
2023/12/28 10:55:19;;;;;;;4.23;0.43;;;;;;;;;;5013853;28;20560;-79
2023/12/28 10:58:04;;;;;;;6.90;1.17;;;;;;;;;;4974089;28;20928;-79
2023/12/28 11:00:31;;;;;;;3.73;0.40;;;;;;;;;;5013564;28;20427;-78
2023/12/28 11:03:02;;;;;;;7.20;1.10;;;;;;;;;;5013722;28;20479;-78
2023/12/28 11:05:29;;;;;;;7.07;1.07;;;;;;;;;;5013845;28;20410;-78
2023/12/28 11:07:58;;;;;;;4.50;0.93;;;;;;;;;;5013500;28;20415;-78
2023/12/28 11:10:25;;;;;;;5.57;0.83;;;;;;;;;;5012289;28;20785;-78
2023/12/28 11:12:54;;;;;;;7.53;1.23;;;;;;;;;;5013688;28;20410;-79
2023/12/28 11:15:20;;;;;;;7.80;0.80;;;;;;;;;;5013614;28;20443;-79
2023/12/28 11:17:46;;;;;;;6.83;1.07;;;;;;;;;;5013626;28;20524;-83
2023/12/28 11:20:12;;;;;;;6.50;1.20;;;;;;;;;;5013522;28;20500;-79
2023/12/28 11:22:39;;;;;;;7.03;1.47;;;;;;;;;;5013053;28;20889;-80
2023/12/28 11:25:05;;;;;;;5.37;0.97;;;;;;;;;;5013327;28;20410;-78
2023/12/28 11:27:35;;;;;;;4.57;0.97;;;;;;;;;;5012111;28;20428;-79
2023/12/28 11:30:01;;;;;;;7.17;1.20;;;;;;;;;;5012128;28;20771;-78
2023/12/28 11:32:27;;;;;;;5.23;0.97;;;;;;;;;;5013433;28;20420;-78
2023/12/28 11:34:58;;;;;;;7.03;0.90;;;;;;;;;;5013132;28;20467;-82
2023/12/28 11:37:24;;;;;;;10.63;1.40;;;;;;;;;;5008783;28;20421;-82
2023/12/28 11:39:50;;;;;;;6.97;0.90;;;;;;;;;;5011459;28;20871;-82
2023/12/28 11:42:20;;;;;;;2.80;0.40;;;;;;;;;;5028572;28;20416;-82
2023/12/28 11:44:47;;;;;;;6.83;1.50;;;;;;;;;;5013410;28;20502;-83
2023/12/28 11:47:23;;;;;;;5.60;1.10;;;;;;;;;;5028499;28;20414;-81
2023/12/28 11:49:51;;;;;;;6.73;1.60;;;;;;;;;;5012990;28;20409;-80
2023/12/28 11:52:24;;;;;;;8.63;1.20;;;;;;;;;;5012888;28;20437;-81
2023/12/28 11:54:50;;;;;;;6.70;1.13;;;;;;;;;;5012789;28;20832;-80
2023/12/28 11:57:17;;;;;;;6.87;1.03;;;;;;;;;;4972590;28;20848;-82
2023/12/28 11:59:43;;;;;;;6.00;1.97;;;;;;;;;;5012602;28;20756;-81
2023/12/28 12:02:10;;;;;;;8.20;1.23;;;;;;;;;;5012000;28;20453;-82
2023/12/28 12:04:37;;;;;;;5.43;0.93;;;;;;;;;;5011773;28;20429;-81
2023/12/28 12:07:03;;;;;;;12.10;2.00;;;;;;;;;;5012095;28;20509;-83
2023/12/28 12:09:34;;;;;;;7.50;1.20;;;;;;;;;;5012180;28;20929;-80
2023/12/28 12:12:01;;;;;;;10.30;1.33;;;;;;;;;;5027769;28;20426;-78
2023/12/28 12:14:28;;;;;;;7.63;1.50;;;;;;;;;;5012336;28;20499;-78
2023/12/28 12:16:56;;;;;;;11.23;2.00;;;;;;;;;;5012492;28;20472;-81
2023/12/28 12:19:22;;;;;;;12.20;1.27;;;;;;;;;;5012135;28;20422;-81
2023/12/28 12:21:48;;;;;;;6.60;1.03;;;;;;;;;;5011926;28;20452;-80
2023/12/28 12:24:14;;;;;;;4.53;0.77;;;;;;;;;;5012191;28;20466;-82
2023/12/28 12:26:40;;;;;;;9.70;1.43;;;;;;;;;;5009432;28;20801;-83
2023/12/28 12:29:07;;;;;;;9.10;1.17;;;;;;;;;;5012414;28;20829;-81
2023/12/28 12:31:33;;;;;;;6.83;0.97;;;;;;;;;;5011769;28;20415;-83
2023/12/28 12:33:59;;;;;;;7.13;1.93;;;;;;;;;;5011691;28;20465;-82
2023/12/28 12:36:25;;;;;;;7.30;1.40;;;;;;;;;;5012203;28;20425;-83
2023/12/28 12:38:51;;;;;;;8.70;1.03;;;;;;;;;;5012535;28;20774;-84
2023/12/28 12:41:17;;;;;;;9.23;2.13;;;;;;;;;;5012858;28;20429;-83
2023/12/28 12:43:43;;;;;;;11.70;1.37;;;;;;;;;;5011835;28;20738;-82
2023/12/28 12:46:09;;;;;;;6.53;1.60;;;;;;;;;;5013157;28;20430;-83
2023/12/28 12:48:35;;;;;;;8.50;0.93;;;;;;;;;;5012548;28;20433;-82
2023/12/28 12:51:04;;;;;;;4.87;1.03;;;;;;;;;;5015655;28;20774;-83
2023/12/28 12:53:37;;;;;;;8.67;0.93;;;;;;;;;;5015847;28;20800;-84
2023/12/28 12:56:07;;;;;;;9.80;1.80;;;;;;;;;;5016766;28;20922;-84
2023/12/28 12:58:33;;;;;;;8.93;0.93;;;;;;;;;;5016925;28;20941;-81
2023/12/28 13:00:59;;;;;;;12.20;1.20;;;;;;;;;;4997230;28;20576;-83
2023/12/28 13:03:29;;;;;;;9.70;2.47;;;;;;;;;;5002502;28;20460;-81
2023/12/28 13:06:03;;;;;;;5.80;0.93;;;;;;;;;;5016469;28;20270;-83
2023/12/28 13:08:29;;;;;;;6.60;1.20;;;;;;;;;;5016320;28;20418;-84
2023/12/28 13:10:55;;;;;;;8.23;1.63;;;;;;;;;;5005149;28;20490;-83
2023/12/28 13:13:21;;;;;;;9.87;1.43;;;;;;;;;;5015090;28;20278;-81
2023/12/28 13:15:47;;;;;;;8.43;0.90;;;;;;;;;;5014549;28;20921;-82
2023/12/28 13:18:13;;;;;;;10.90;1.43;;;;;;;;;;5015661;28;20231;-84
2023/12/28 13:20:39;;;;;;;8.40;1.70;;;;;;;;;;5014134;28;20429;-80
2023/12/28 13:23:05;;;;;;;7.17;1.30;;;;;;;;;;5015200;28;20467;-80
2023/12/28 13:25:31;;;;;;;8.27;1.17;;;;;;;;;;5015419;28;20448;-82
2023/12/28 13:27:57;;;;;;;14.33;2.10;;;;;;;;;;5015391;28;20560;-80
2023/12/28 13:30:26;;;;;;;10.73;1.20;;;;;;;;;;5015089;28;20236;-79
2023/12/28 13:32:52;;;;;;;7.97;1.07;;;;;;;;;;5014334;28;20267;-80
2023/12/28 13:35:18;;;;;;;8.40;1.50;;;;;;;;;;5013977;28;20630;-81
2023/12/28 13:37:43;;;;;;;8.10;1.40;;;;;;;;;;5014113;28;20178;-81
2023/12/28 13:40:10;;;;;;;7.97;1.03;;;;;;;;;;5014478;28;20418;-81
2023/12/28 13:42:35;;;;;;;7.57;2.00;;;;;;;;;;5013086;28;20508;-81
2023/12/28 13:45:02;;;;;;;6.13;1.20;;;;;;;;;;5013814;28;20449;-80
2023/12/28 13:47:28;;;;;;;8.23;1.43;;;;;;;;;;5014095;28;20175;-79
2023/12/28 13:49:55;;;;;;;6.73;1.77;;;;;;;;;;5014543;28;20782;-82
2023/12/28 13:52:21;;;;;;;10.37;1.50;;;;;;;;;;5014471;28;20406;-82
2023/12/28 13:54:47;;;;;;;5.37;0.90;;;;;;;;;;5014473;28;20506;-82
2023/12/28 13:57:13;;;;;;;8.77;1.23;;;;;;;;;;5012794;28;20201;-81
2023/12/28 13:59:39;;;;;;;4.93;0.43;;;;;;;;;;5014470;28;20592;-81
2023/12/28 14:02:05;;;;;;;8.10;1.40;;;;;;;;;;4981630;28;20281;-82
2023/12/28 14:04:31;;;;;;;12.67;1.80;;;;;;;;;;5014516;28;20496;-83
2023/12/28 14:06:57;;;;;;;4.37;0.67;;;;;;;;;;5014029;28;20452;-82
2023/12/28 14:09:23;;;;;;;10.50;1.20;;;;;;;;;;5014357;28;20431;-83
2023/12/28 14:11:49;;;;;;;5.93;0.90;;;;;;;;;;5014374;28;20173;-81
2023/12/28 14:14:15;;;;;;;10.33;1.67;;;;;;;;;;5014235;28;20478;-83
2023/12/28 14:16:41;;;;;;;12.20;2.17;;;;;;;;;;5014794;28;20420;-82
2023/12/28 14:19:07;;;;;;;10.13;2.10;;;;;;;;;;5029401;28;20436;-81
2023/12/28 14:21:37;;;;;;;9.30;2.13;;;;;;;;;;5013806;28;20398;-81
2023/12/28 14:24:03;;;;;;;7.37;1.43;;;;;;;;;;5014166;28;20410;-82
2023/12/28 14:26:30;;;;;;;7.23;1.37;;;;;;;;;;5014095;28;20426;-81
2023/12/28 14:28:56;;;;;;;5.70;1.17;;;;;;;;;;5014000;28;20772;-82
2023/12/28 14:31:22;;;;;;;5.70;1.43;;;;;;;;;;5014088;28;20411;-84
2023/12/28 14:33:48;;;;;;;11.97;0.80;;;;;;;;;;5013999;28;20505;-82
2023/12/28 14:36:35;;;;;;;9.60;0.73;;;;;;;;;;5013094;28;20421;-82
2023/12/28 14:39:07;;;;;;;8.60;1.33;;;;;;;;;;5013853;28;20404;-83
2023/12/28 14:41:36;;;;;;;6.87;1.53;;;;;;;;;;5014053;28;20507;-82